sensor_id;sensor_type;location;lat;lon;timestamp;pressure;altitude;pressure_sealevel;temperature;humidity
64388;BME280;50709;52.648;4.764;2022-10-16T00:01:08;100789.63;;;16.91;69.63
64388;BME280;50709;52.648;4.764;2022-10-16T00:03:34;100801.94;;;16.91;69.63
64388;BME280;50709;52.648;4.764;2022-10-16T00:06:01;100797.72;;;16.82;69.72
64388;BME280;50709;52.648;4.764;2022-10-16T00:08:27;100785.16;;;16.93;69.74
64388;BME280;50709;52.648;4.764;2022-10-16T00:10:52;100803.41;;;17.03;70.13
64388;BME280;50709;52.648;4.764;2022-10-16T00:13:17;100799.91;;;17.02;70.47
64388;BME280;50709;52.648;4.764;2022-10-16T00:15:44;100800.16;;;17.26;69.92
64388;BME280;50709;52.648;4.764;2022-10-16T00:18:14;100797.03;;;17.10;69.35
64388;BME280;50709;52.648;4.764;2022-10-16T00:20:39;100807.25;;;16.88;69.66
64388;BME280;50709;52.648;4.764;2022-10-16T00:23:05;100812.34;;;16.97;69.45
64388;BME280;50709;52.648;4.764;2022-10-16T00:25:31;100822.66;;;17.06;69.69
64388;BME280;50709;52.648;4.764;2022-10-16T00:27:58;100818.25;;;17.07;71.56
64388;BME280;50709;52.648;4.764;2022-10-16T00:30:24;100818.56;;;16.94;71.91
64388;BME280;50709;52.648;4.764;2022-10-16T00:32:51;100818.75;;;16.85;73.29
64388;BME280;50709;52.648;4.764;2022-10-16T00:35:17;100790.94;;;16.72;72.41
64388;BME280;50709;52.648;4.764;2022-10-16T00:37:42;100802.16;;;16.80;73.00
64388;BME280;50709;52.648;4.764;2022-10-16T00:40:08;100788.03;;;16.82;72.87
64388;BME280;50709;52.648;4.764;2022-10-16T00:42:33;100793.91;;;16.58;74.13
64388;BME280;50709;52.648;4.764;2022-10-16T00:45:02;100779.75;;;16.62;72.47
64388;BME280;50709;52.648;4.764;2022-10-16T00:47:32;100802.19;;;16.78;72.22
64388;BME280;50709;52.648;4.764;2022-10-16T00:50:43;100782.53;;;16.93;70.57
64388;BME280;50709;52.648;4.764;2022-10-16T00:52:51;100789.28;;;16.68;70.11
64388;BME280;50709;52.648;4.764;2022-10-16T00:55:17;100799.25;;;16.55;70.97
64388;BME280;50709;52.648;4.764;2022-10-16T00:57:43;100780.03;;;16.87;70.78
64388;BME280;50709;52.648;4.764;2022-10-16T01:00:16;100788.03;;;16.82;69.83
64388;BME280;50709;52.648;4.764;2022-10-16T01:02:42;100794.72;;;16.61;70.24
64388;BME280;50709;52.648;4.764;2022-10-16T01:05:08;100799.66;;;16.75;71.92
64388;BME280;50709;52.648;4.764;2022-10-16T01:07:53;100794.66;;;17.01;69.46
64388;BME280;50709;52.648;4.764;2022-10-16T01:10:44;100802.84;;;16.52;69.34
64388;BME280;50709;52.648;4.764;2022-10-16T01:13:47;100798.16;;;16.63;68.02
64388;BME280;50709;52.648;4.764;2022-10-16T01:19:08;100810.84;;;16.85;69.85
64388;BME280;50709;52.648;4.764;2022-10-16T01:21:43;100797.59;;;16.87;68.13
64388;BME280;50709;52.648;4.764;2022-10-16T01:24:34;100808.09;;;16.88;70.18
64388;BME280;50709;52.648;4.764;2022-10-16T01:32:40;100809.03;;;16.50;68.68
64388;BME280;50709;52.648;4.764;2022-10-16T01:35:20;100798.28;;;16.59;69.34
64388;BME280;50709;52.648;4.764;2022-10-16T01:37:56;100794.25;;;16.80;70.64
64388;BME280;50709;52.648;4.764;2022-10-16T01:40:24;100807.19;;;16.55;69.39
64388;BME280;50709;52.648;4.764;2022-10-16T01:42:56;100805.97;;;16.68;69.22
64388;BME280;50709;52.648;4.764;2022-10-16T01:45:23;100812.03;;;16.72;67.16
64388;BME280;50709;52.648;4.764;2022-10-16T01:47:50;100808.16;;;16.87;69.17
64388;BME280;50709;52.648;4.764;2022-10-16T01:50:19;100804.91;;;16.75;70.38
64388;BME280;50709;52.648;4.764;2022-10-16T01:52:48;100816.31;;;16.76;69.73
64388;BME280;50709;52.648;4.764;2022-10-16T01:55:22;100806.56;;;16.42;68.14
64388;BME280;50709;52.648;4.764;2022-10-16T01:57:49;100805.91;;;16.71;69.08
64388;BME280;50709;52.648;4.764;2022-10-16T02:00:19;100815.38;;;16.78;69.53
64388;BME280;50709;52.648;4.764;2022-10-16T02:02:48;100806.50;;;16.82;70.31
64388;BME280;50709;52.648;4.764;2022-10-16T02:05:28;100822.31;;;16.82;69.98
64388;BME280;50709;52.648;4.764;2022-10-16T02:07:56;100815.13;;;16.91;69.67
64388;BME280;50709;52.648;4.764;2022-10-16T02:10:23;100821.34;;;16.87;70.68
64388;BME280;50709;52.648;4.764;2022-10-16T02:12:59;100818.91;;;16.77;70.31
64388;BME280;50709;52.648;4.764;2022-10-16T02:15:26;100824.53;;;16.63;70.24
64388;BME280;50709;52.648;4.764;2022-10-16T02:17:51;100830.16;;;16.86;70.07
64388;BME280;50709;52.648;4.764;2022-10-16T02:20:20;100828.91;;;16.64;70.75
64388;BME280;50709;52.648;4.764;2022-10-16T02:22:50;100823.84;;;16.55;70.92
64388;BME280;50709;52.648;4.764;2022-10-16T02:25:21;100832.06;;;16.80;71.68
64388;BME280;50709;52.648;4.764;2022-10-16T02:28:14;100830.09;;;16.51;69.86
64388;BME280;50709;52.648;4.764;2022-10-16T02:30:43;100819.94;;;16.33;70.88
64388;BME280;50709;52.648;4.764;2022-10-16T02:33:11;100820.72;;;16.38;70.07
64388;BME280;50709;52.648;4.764;2022-10-16T02:35:39;100816.44;;;16.34;71.27
64388;BME280;50709;52.648;4.764;2022-10-16T02:38:06;100822.69;;;16.28;70.47
64388;BME280;50709;52.648;4.764;2022-10-16T02:40:33;100844.16;;;16.50;70.59
64388;BME280;50709;52.648;4.764;2022-10-16T02:42:59;100846.91;;;16.45;70.53
64388;BME280;50709;52.648;4.764;2022-10-16T02:45:24;100842.63;;;16.41;69.89
64388;BME280;50709;52.648;4.764;2022-10-16T02:47:50;100829.63;;;16.71;70.53
64388;BME280;50709;52.648;4.764;2022-10-16T02:50:15;100829.69;;;16.30;70.24
64388;BME280;50709;52.648;4.764;2022-10-16T02:52:41;100844.72;;;16.64;70.46
64388;BME280;50709;52.648;4.764;2022-10-16T02:55:06;100856.88;;;16.31;70.30
64388;BME280;50709;52.648;4.764;2022-10-16T02:57:32;100849.41;;;16.52;68.77
64388;BME280;50709;52.648;4.764;2022-10-16T02:59:57;100853.44;;;16.27;70.34
64388;BME280;50709;52.648;4.764;2022-10-16T03:02:23;100860.59;;;16.63;70.86
64388;BME280;50709;52.648;4.764;2022-10-16T03:04:48;100855.19;;;16.28;70.57
64388;BME280;50709;52.648;4.764;2022-10-16T03:07:14;100868.94;;;16.43;71.52
64388;BME280;50709;52.648;4.764;2022-10-16T03:09:39;100874.78;;;16.56;72.27
64388;BME280;50709;52.648;4.764;2022-10-16T03:12:04;100868.59;;;16.18;72.97
64388;BME280;50709;52.648;4.764;2022-10-16T03:14:30;100884.25;;;16.25;73.63
64388;BME280;50709;52.648;4.764;2022-10-16T03:16:55;100880.69;;;16.28;74.87
64388;BME280;50709;52.648;4.764;2022-10-16T03:19:21;100872.88;;;16.22;75.45
64388;BME280;50709;52.648;4.764;2022-10-16T03:21:46;100887.22;;;16.08;76.16
64388;BME280;50709;52.648;4.764;2022-10-16T03:24:11;100889.81;;;16.11;76.76
64388;BME280;50709;52.648;4.764;2022-10-16T03:26:37;100903.13;;;16.04;75.80
64388;BME280;50709;52.648;4.764;2022-10-16T03:29:03;100889.53;;;15.77;77.47
64388;BME280;50709;52.648;4.764;2022-10-16T03:31:31;100888.63;;;16.26;74.94
64388;BME280;50709;52.648;4.764;2022-10-16T03:33:56;100858.91;;;16.20;74.89
64388;BME280;50709;52.648;4.764;2022-10-16T03:36:22;100879.38;;;16.05;74.23
64388;BME280;50709;52.648;4.764;2022-10-16T03:38:47;100875.50;;;16.23;74.09
64388;BME280;50709;52.648;4.764;2022-10-16T03:41:13;100877.25;;;16.23;72.91
64388;BME280;50709;52.648;4.764;2022-10-16T03:43:38;100882.47;;;15.82;75.79
64388;BME280;50709;52.648;4.764;2022-10-16T03:46:03;100874.19;;;16.02;76.08
64388;BME280;50709;52.648;4.764;2022-10-16T03:48:29;100861.88;;;15.54;77.04
64388;BME280;50709;52.648;4.764;2022-10-16T03:50:55;100874.13;;;15.57;78.00
64388;BME280;50709;52.648;4.764;2022-10-16T03:53:20;100877.09;;;15.87;77.31
64388;BME280;50709;52.648;4.764;2022-10-16T03:55:45;100882.00;;;16.05;76.27
64388;BME280;50709;52.648;4.764;2022-10-16T03:58:11;100887.00;;;16.19;75.96
64388;BME280;50709;52.648;4.764;2022-10-16T04:00:44;100874.94;;;16.09;76.48
64388;BME280;50709;52.648;4.764;2022-10-16T04:03:11;100889.13;;;16.00;75.92
64388;BME280;50709;52.648;4.764;2022-10-16T04:05:36;100894.84;;;16.22;75.64
64388;BME280;50709;52.648;4.764;2022-10-16T04:08:02;100890.56;;;16.17;76.40
64388;BME280;50709;52.648;4.764;2022-10-16T04:10:28;100886.50;;;16.00;78.10
64388;BME280;50709;52.648;4.764;2022-10-16T04:12:53;100875.63;;;15.70;78.48
64388;BME280;50709;52.648;4.764;2022-10-16T04:15:21;100890.97;;;15.95;77.39
64388;BME280;50709;52.648;4.764;2022-10-16T04:17:47;100894.75;;;16.27;77.05
64388;BME280;50709;52.648;4.764;2022-10-16T04:20:12;100903.47;;;16.29;77.05
64388;BME280;50709;52.648;4.764;2022-10-16T04:22:38;100901.06;;;16.18;77.08
64388;BME280;50709;52.648;4.764;2022-10-16T04:25:04;100911.81;;;16.09;77.11
64388;BME280;50709;52.648;4.764;2022-10-16T04:27:29;100917.69;;;16.22;77.25
64388;BME280;50709;52.648;4.764;2022-10-16T04:29:57;100907.50;;;16.03;76.65
64388;BME280;50709;52.648;4.764;2022-10-16T04:32:22;100914.22;;;16.18;75.90
64388;BME280;50709;52.648;4.764;2022-10-16T04:34:47;100918.00;;;16.06;76.78
64388;BME280;50709;52.648;4.764;2022-10-16T04:37:13;100911.00;;;16.05;75.68
64388;BME280;50709;52.648;4.764;2022-10-16T04:39:38;100900.50;;;16.04;75.53
64388;BME280;50709;52.648;4.764;2022-10-16T04:42:03;100914.94;;;16.28;75.37
64388;BME280;50709;52.648;4.764;2022-10-16T04:44:29;100914.22;;;16.18;74.42
64388;BME280;50709;52.648;4.764;2022-10-16T04:46:54;100914.03;;;15.84;74.76
64388;BME280;50709;52.648;4.764;2022-10-16T04:49:20;100920.19;;;15.83;75.79
64388;BME280;50709;52.648;4.764;2022-10-16T04:51:45;100929.50;;;16.01;76.10
64388;BME280;50709;52.648;4.764;2022-10-16T04:54:11;100927.19;;;15.84;75.38
64388;BME280;50709;52.648;4.764;2022-10-16T04:56:36;100937.88;;;15.74;76.29
64388;BME280;50709;52.648;4.764;2022-10-16T04:59:08;100939.00;;;15.59;76.55
64388;BME280;50709;52.648;4.764;2022-10-16T05:01:34;100936.78;;;15.88;76.50
64388;BME280;50709;52.648;4.764;2022-10-16T05:03:59;100944.81;;;15.80;76.98
64388;BME280;50709;52.648;4.764;2022-10-16T05:06:24;100955.88;;;15.99;77.52
64388;BME280;50709;52.648;4.764;2022-10-16T05:08:50;100955.94;;;15.96;76.74
64388;BME280;50709;52.648;4.764;2022-10-16T05:11:15;100951.72;;;15.86;78.13
64388;BME280;50709;52.648;4.764;2022-10-16T05:13:40;100965.00;;;15.81;78.84
64388;BME280;50709;52.648;4.764;2022-10-16T05:16:06;100953.28;;;15.97;78.55
64388;BME280;50709;52.648;4.764;2022-10-16T05:18:31;100951.56;;;15.95;77.98
64388;BME280;50709;52.648;4.764;2022-10-16T05:20:57;100945.19;;;16.07;78.24
64388;BME280;50709;52.648;4.764;2022-10-16T05:23:22;100967.31;;;16.43;76.06
64388;BME280;50709;52.648;4.764;2022-10-16T05:25:55;100921.53;;;16.05;78.34
64388;BME280;50709;52.648;4.764;2022-10-16T05:28:26;100958.97;;;16.65;76.56
64388;BME280;50709;52.648;4.764;2022-10-16T05:30:52;100952.91;;;16.18;78.48
64388;BME280;50709;52.648;4.764;2022-10-16T05:33:20;100967.13;;;16.07;79.12
64388;BME280;50709;52.648;4.764;2022-10-16T05:35:45;100975.91;;;16.09;78.02
64388;BME280;50709;52.648;4.764;2022-10-16T05:38:10;100977.41;;;16.23;78.39
64388;BME280;50709;52.648;4.764;2022-10-16T05:40:36;100973.88;;;16.24;77.65
64388;BME280;50709;52.648;4.764;2022-10-16T05:43:01;100970.66;;;16.08;79.49
64388;BME280;50709;52.648;4.764;2022-10-16T05:45:27;100982.47;;;16.34;78.68
64388;BME280;50709;52.648;4.764;2022-10-16T05:47:52;100972.91;;;16.28;78.07
64388;BME280;50709;52.648;4.764;2022-10-16T05:50:17;100963.13;;;15.88;76.54
64388;BME280;50709;52.648;4.764;2022-10-16T05:52:43;100972.53;;;16.01;78.43
64388;BME280;50709;52.648;4.764;2022-10-16T05:55:08;100961.69;;;16.17;77.23
64388;BME280;50709;52.648;4.764;2022-10-16T05:57:33;100954.13;;;16.00;77.81
64388;BME280;50709;52.648;4.764;2022-10-16T05:59:59;100982.00;;;16.10;77.82
64388;BME280;50709;52.648;4.764;2022-10-16T06:02:24;100986.41;;;16.11;77.94
64388;BME280;50709;52.648;4.764;2022-10-16T06:04:51;100991.94;;;15.97;78.32
64388;BME280;50709;52.648;4.764;2022-10-16T06:07:18;100976.84;;;16.05;77.47
64388;BME280;50709;52.648;4.764;2022-10-16T06:09:43;100997.06;;;16.05;77.91
64388;BME280;50709;52.648;4.764;2022-10-16T06:12:09;100997.63;;;16.22;77.99
64388;BME280;50709;52.648;4.764;2022-10-16T06:14:34;101007.34;;;16.19;77.58
64388;BME280;50709;52.648;4.764;2022-10-16T06:16:59;100994.22;;;16.14;78.11
64388;BME280;50709;52.648;4.764;2022-10-16T06:19:25;100996.38;;;15.93;77.76
64388;BME280;50709;52.648;4.764;2022-10-16T06:21:50;101005.97;;;15.97;78.50
64388;BME280;50709;52.648;4.764;2022-10-16T06:24:16;101005.16;;;15.94;78.41
64388;BME280;50709;52.648;4.764;2022-10-16T06:26:41;101001.75;;;15.87;78.73
64388;BME280;50709;52.648;4.764;2022-10-16T06:29:06;101011.44;;;15.85;79.35
64388;BME280;50709;52.648;4.764;2022-10-16T06:31:32;101005.13;;;15.95;78.44
64388;BME280;50709;52.648;4.764;2022-10-16T06:33:58;101018.38;;;15.91;78.22
64388;BME280;50709;52.648;4.764;2022-10-16T06:36:25;101034.88;;;16.02;77.92
64388;BME280;50709;52.648;4.764;2022-10-16T06:38:50;101043.91;;;15.86;78.67
64388;BME280;50709;52.648;4.764;2022-10-16T06:41:19;101027.47;;;15.68;78.80
64388;BME280;50709;52.648;4.764;2022-10-16T06:43:46;101055.75;;;16.13;76.69
64388;BME280;50709;52.648;4.764;2022-10-16T06:46:14;101051.06;;;16.29;76.31
64388;BME280;50709;52.648;4.764;2022-10-16T06:48:40;101043.53;;;16.07;78.33
64388;BME280;50709;52.648;4.764;2022-10-16T06:51:06;101069.16;;;15.99;78.49
64388;BME280;50709;52.648;4.764;2022-10-16T06:53:34;101086.63;;;16.03;78.18
64388;BME280;50709;52.648;4.764;2022-10-16T06:58:45;101079.97;;;16.34;77.02
64388;BME280;50709;52.648;4.764;2022-10-16T07:01:11;101083.16;;;16.03;76.75
64388;BME280;50709;52.648;4.764;2022-10-16T07:03:39;101073.63;;;15.95;77.75
64388;BME280;50709;52.648;4.764;2022-10-16T07:06:06;101072.50;;;16.07;77.82
64388;BME280;50709;52.648;4.764;2022-10-16T07:08:33;101083.75;;;16.19;77.84
64388;BME280;50709;52.648;4.764;2022-10-16T07:11:03;101094.44;;;16.09;77.36
64388;BME280;50709;52.648;4.764;2022-10-16T07:13:29;101114.50;;;16.20;77.90
64388;BME280;50709;52.648;4.764;2022-10-16T07:15:55;101108.03;;;16.38;76.86
64388;BME280;50709;52.648;4.764;2022-10-16T07:18:20;101103.56;;;16.41;77.33
64388;BME280;50709;52.648;4.764;2022-10-16T07:20:46;101115.00;;;16.40;77.41
64388;BME280;50709;52.648;4.764;2022-10-16T07:23:12;101121.94;;;16.46;76.85
64388;BME280;50709;52.648;4.764;2022-10-16T07:25:37;101123.78;;;16.41;77.20
64388;BME280;50709;52.648;4.764;2022-10-16T07:28:03;101131.34;;;16.59;77.28
64388;BME280;50709;52.648;4.764;2022-10-16T07:30:28;101131.66;;;16.42;77.94
64388;BME280;50709;52.648;4.764;2022-10-16T07:32:53;101125.88;;;16.70;77.70
64388;BME280;50709;52.648;4.764;2022-10-16T07:35:19;101137.44;;;17.11;75.74
64388;BME280;50709;52.648;4.764;2022-10-16T07:37:45;101145.47;;;17.05;75.59
64388;BME280;50709;52.648;4.764;2022-10-16T07:40:11;101159.00;;;17.32;73.85
64388;BME280;50709;52.648;4.764;2022-10-16T07:42:37;101157.19;;;17.36;73.50
64388;BME280;50709;52.648;4.764;2022-10-16T07:45:02;101175.63;;;17.37;73.71
64388;BME280;50709;52.648;4.764;2022-10-16T07:47:28;101175.69;;;17.32;73.13
64388;BME280;50709;52.648;4.764;2022-10-16T07:49:53;101179.22;;;17.31;72.26
64388;BME280;50709;52.648;4.764;2022-10-16T07:52:19;101183.91;;;17.19;71.20
64388;BME280;50709;52.648;4.764;2022-10-16T07:54:44;101190.00;;;17.21;70.75
64388;BME280;50709;52.648;4.764;2022-10-16T07:57:10;101192.53;;;17.27;69.45
64388;BME280;50709;52.648;4.764;2022-10-16T07:59:35;101196.47;;;17.06;69.62
64388;BME280;50709;52.648;4.764;2022-10-16T08:02:00;101181.47;;;17.08;68.87
64388;BME280;50709;52.648;4.764;2022-10-16T08:04:26;101183.41;;;17.00;69.70
64388;BME280;50709;52.648;4.764;2022-10-16T08:06:51;101200.66;;;17.16;69.61
64388;BME280;50709;52.648;4.764;2022-10-16T08:09:16;101207.63;;;17.20;68.79
64388;BME280;50709;52.648;4.764;2022-10-16T08:11:42;101214.03;;;17.07;69.59
64388;BME280;50709;52.648;4.764;2022-10-16T08:14:07;101221.03;;;17.09;69.78
64388;BME280;50709;52.648;4.764;2022-10-16T08:16:32;101205.97;;;17.14;67.33
64388;BME280;50709;52.648;4.764;2022-10-16T08:18:57;101232.34;;;17.16;69.37
64388;BME280;50709;52.648;4.764;2022-10-16T08:21:23;101221.13;;;17.03;65.45
64388;BME280;50709;52.648;4.764;2022-10-16T08:23:50;101234.88;;;17.21;68.22
64388;BME280;50709;52.648;4.764;2022-10-16T08:26:15;101232.13;;;17.27;65.82
64388;BME280;50709;52.648;4.764;2022-10-16T08:28:41;101241.31;;;17.07;66.16
64388;BME280;50709;52.648;4.764;2022-10-16T08:31:11;101236.94;;;17.06;64.17
64388;BME280;50709;52.648;4.764;2022-10-16T08:33:38;101238.50;;;17.15;66.41
64388;BME280;50709;52.648;4.764;2022-10-16T08:36:04;101256.19;;;17.11;64.64
64388;BME280;50709;52.648;4.764;2022-10-16T08:38:30;101249.56;;;16.87;61.03
64388;BME280;50709;52.648;4.764;2022-10-16T08:41:14;101247.34;;;17.12;65.15
64388;BME280;50709;52.648;4.764;2022-10-16T08:44:01;101268.00;;;16.90;63.89
64388;BME280;50709;52.648;4.764;2022-10-16T08:49:11;101274.38;;;17.27;68.63
64388;BME280;50709;52.648;4.764;2022-10-16T08:51:39;101287.09;;;17.52;68.78
64388;BME280;50709;52.648;4.764;2022-10-16T08:54:21;101274.13;;;17.39;65.18
64388;BME280;50709;52.648;4.764;2022-10-16T08:56:48;101291.44;;;17.54;62.95
64388;BME280;50709;52.648;4.764;2022-10-16T08:59:14;101291.66;;;17.43;61.95
64388;BME280;50709;52.648;4.764;2022-10-16T09:01:44;101297.78;;;17.45;65.07
64388;BME280;50709;52.648;4.764;2022-10-16T09:15:50;101328.50;;;17.95;60.80
64388;BME280;50709;52.648;4.764;2022-10-16T09:23:40;101335.53;;;19.12;57.88
64388;BME280;50709;52.648;4.764;2022-10-16T09:26:10;101347.31;;;19.67;58.05
64388;BME280;50709;52.648;4.764;2022-10-16T09:28:36;101352.16;;;19.85;58.96
64388;BME280;50709;52.648;4.764;2022-10-16T09:31:01;101343.09;;;19.60;60.05
64388;BME280;50709;52.648;4.764;2022-10-16T09:33:36;101344.34;;;19.47;58.17
64388;BME280;50709;52.648;4.764;2022-10-16T09:36:04;101349.44;;;19.55;57.69
64388;BME280;50709;52.648;4.764;2022-10-16T09:38:34;101359.59;;;19.70;55.65
64388;BME280;50709;52.648;4.764;2022-10-16T09:41:12;101363.69;;;19.83;56.54
64388;BME280;50709;52.648;4.764;2022-10-16T09:43:54;101363.00;;;19.75;55.51
64388;BME280;50709;52.648;4.764;2022-10-16T09:46:32;101355.75;;;20.13;55.50
64388;BME280;50709;52.648;4.764;2022-10-16T09:49:20;101364.91;;;20.03;53.64
64388;BME280;50709;52.648;4.764;2022-10-16T09:51:46;101358.97;;;20.25;59.57
64388;BME280;50709;52.648;4.764;2022-10-16T09:54:14;101362.44;;;20.55;55.67
64388;BME280;50709;52.648;4.764;2022-10-16T09:56:40;101366.34;;;20.43;54.52
64388;BME280;50709;52.648;4.764;2022-10-16T09:59:12;101349.75;;;20.07;55.26
64388;BME280;50709;52.648;4.764;2022-10-16T10:01:44;101366.75;;;20.29;57.52
64388;BME280;50709;52.648;4.764;2022-10-16T10:04:10;101377.16;;;20.07;53.82
64388;BME280;50709;52.648;4.764;2022-10-16T10:06:40;101367.19;;;20.15;56.93
64388;BME280;50709;52.648;4.764;2022-10-16T10:09:13;101384.56;;;20.56;59.17
64388;BME280;50709;52.648;4.764;2022-10-16T10:11:51;101388.72;;;20.05;57.95
64388;BME280;50709;52.648;4.764;2022-10-16T10:16:49;101410.94;;;20.60;59.24
64388;BME280;50709;52.648;4.764;2022-10-16T10:19:17;101388.56;;;20.39;54.94
64388;BME280;50709;52.648;4.764;2022-10-16T10:21:42;101395.66;;;20.69;58.29
64388;BME280;50709;52.648;4.764;2022-10-16T10:24:15;101404.94;;;20.54;59.20
64388;BME280;50709;52.648;4.764;2022-10-16T10:27:07;101395.06;;;20.59;52.19
64388;BME280;50709;52.648;4.764;2022-10-16T10:50:20;101435.19;;;20.18;59.56
64388;BME280;50709;52.648;4.764;2022-10-16T10:52:58;101473.66;;;20.63;58.83
64388;BME280;50709;52.648;4.764;2022-10-16T10:55:37;101469.47;;;20.56;58.67
64388;BME280;50709;52.648;4.764;2022-10-16T10:58:31;101465.81;;;20.60;57.91
64388;BME280;50709;52.648;4.764;2022-10-16T11:01:15;101461.22;;;20.65;56.52
64388;BME280;50709;52.648;4.764;2022-10-16T11:06:35;101480.38;;;20.76;57.80
64388;BME280;50709;52.648;4.764;2022-10-16T11:09:15;101459.44;;;20.95;58.16
64388;BME280;50709;52.648;4.764;2022-10-16T11:11:53;101480.03;;;20.26;56.94
64388;BME280;50709;52.648;4.764;2022-10-16T11:14:23;101486.72;;;20.39;59.77
64388;BME280;50709;52.648;4.764;2022-10-16T11:16:58;101480.00;;;19.94;53.93
64388;BME280;50709;52.648;4.764;2022-10-16T11:19:42;101481.53;;;20.66;58.93
64388;BME280;50709;52.648;4.764;2022-10-16T11:27:50;101492.81;;;20.11;56.80
64388;BME280;50709;52.648;4.764;2022-10-16T11:30:25;101499.78;;;20.15;55.74
64388;BME280;50709;52.648;4.764;2022-10-16T11:36:00;101512.19;;;20.46;58.03
64388;BME280;50709;52.648;4.764;2022-10-16T11:38:32;101517.50;;;20.46;56.16
64388;BME280;50709;52.648;4.764;2022-10-16T11:41:09;101516.94;;;20.33;58.39
64388;BME280;50709;52.648;4.764;2022-10-16T11:43:45;101506.41;;;19.99;53.37
64388;BME280;50709;52.648;4.764;2022-10-16T11:46:19;101517.56;;;20.43;56.03
64388;BME280;50709;52.648;4.764;2022-10-16T11:48:55;101527.69;;;20.60;55.02
64388;BME280;50709;52.648;4.764;2022-10-16T11:51:31;101520.97;;;20.80;55.26
64388;BME280;50709;52.648;4.764;2022-10-16T11:54:04;101527.09;;;20.50;57.04
64388;BME280;50709;52.648;4.764;2022-10-16T11:56:37;101520.19;;;20.76;58.28
64388;BME280;50709;52.648;4.764;2022-10-16T11:59:17;101536.06;;;20.78;55.08
64388;BME280;50709;52.648;4.764;2022-10-16T12:01:50;101532.25;;;20.55;57.92
64388;BME280;50709;52.648;4.764;2022-10-16T12:04:31;101538.31;;;20.60;55.67
64388;BME280;50709;52.648;4.764;2022-10-16T12:09:33;101543.16;;;20.77;58.85
64388;BME280;50709;52.648;4.764;2022-10-16T12:12:00;101537.16;;;20.71;58.35
64388;BME280;50709;52.648;4.764;2022-10-16T12:14:36;101518.25;;;20.19;56.66
64388;BME280;50709;52.648;4.764;2022-10-16T12:17:25;101532.34;;;20.52;57.28
64388;BME280;50709;52.648;4.764;2022-10-16T12:19:59;101541.81;;;20.61;54.08
64388;BME280;50709;52.648;4.764;2022-10-16T12:22:28;101536.03;;;21.08;56.72
64388;BME280;50709;52.648;4.764;2022-10-16T12:24:54;101541.47;;;21.05;54.66
64388;BME280;50709;52.648;4.764;2022-10-16T12:27:32;101544.13;;;21.33;55.42
64388;BME280;50709;52.648;4.764;2022-10-16T12:30:03;101554.84;;;21.02;54.67
64388;BME280;50709;52.648;4.764;2022-10-16T12:32:36;101547.63;;;20.75;52.66
64388;BME280;50709;52.648;4.764;2022-10-16T12:35:03;101542.66;;;21.51;56.76
64388;BME280;50709;52.648;4.764;2022-10-16T12:37:36;101553.50;;;21.16;52.83
64388;BME280;50709;52.648;4.764;2022-10-16T12:40:24;101556.81;;;20.95;55.80
64388;BME280;50709;52.648;4.764;2022-10-16T12:42:51;101551.41;;;20.98;55.02
64388;BME280;50709;52.648;4.764;2022-10-16T12:45:32;101546.97;;;20.67;55.74
64388;BME280;50709;52.648;4.764;2022-10-16T12:48:02;101553.91;;;21.31;56.57
64388;BME280;50709;52.648;4.764;2022-10-16T12:50:36;101548.22;;;20.85;52.23
64388;BME280;50709;52.648;4.764;2022-10-16T12:53:04;101551.06;;;21.09;55.94
64388;BME280;50709;52.648;4.764;2022-10-16T13:01:12;101557.09;;;20.86;50.28
64388;BME280;50709;52.648;4.764;2022-10-16T13:12:12;101569.41;;;20.55;52.04
64388;BME280;50709;52.648;4.764;2022-10-16T13:25:39;101578.03;;;21.25;55.27
64388;BME280;50709;52.648;4.764;2022-10-16T13:28:10;101583.09;;;20.73;49.70
64388;BME280;50709;52.648;4.764;2022-10-16T13:30:53;101583.78;;;20.13;52.30
64388;BME280;50709;52.648;4.764;2022-10-16T13:35:55;101582.78;;;20.52;55.74
64388;BME280;50709;52.648;4.764;2022-10-16T13:38:26;101580.38;;;20.76;56.27
64388;BME280;50709;52.648;4.764;2022-10-16T13:40:56;101575.41;;;20.62;53.55
64388;BME280;50709;52.648;4.764;2022-10-16T13:43:28;101593.03;;;20.64;54.97
64388;BME280;50709;52.648;4.764;2022-10-16T13:46:02;101598.44;;;20.61;56.73
64388;BME280;50709;52.648;4.764;2022-10-16T13:48:28;101597.19;;;20.42;56.51
64388;BME280;50709;52.648;4.764;2022-10-16T13:51:02;101600.53;;;20.48;55.25
64388;BME280;50709;52.648;4.764;2022-10-16T13:53:33;101605.72;;;20.20;53.00
64388;BME280;50709;52.648;4.764;2022-10-16T13:56:00;101620.28;;;20.38;54.49
64388;BME280;50709;52.648;4.764;2022-10-16T13:58:26;101618.84;;;20.26;52.60
64388;BME280;50709;52.648;4.764;2022-10-16T14:01:00;101632.91;;;20.94;57.12
64388;BME280;50709;52.648;4.764;2022-10-16T14:03:27;101627.97;;;20.49;54.24
64388;BME280;50709;52.648;4.764;2022-10-16T14:05:55;101629.63;;;20.19;54.31
64388;BME280;50709;52.648;4.764;2022-10-16T14:08:23;101632.84;;;20.31;59.21
64388;BME280;50709;52.648;4.764;2022-10-16T14:10:55;101637.78;;;19.73;52.31
64388;BME280;50709;52.648;4.764;2022-10-16T14:13:31;101635.53;;;20.30;53.92
64388;BME280;50709;52.648;4.764;2022-10-16T14:16:02;101626.72;;;19.54;52.87
64388;BME280;50709;52.648;4.764;2022-10-16T14:18:30;101633.19;;;19.42;54.15
64388;BME280;50709;52.648;4.764;2022-10-16T14:21:03;101634.50;;;19.62;52.45
64388;BME280;50709;52.648;4.764;2022-10-16T14:23:38;101636.09;;;19.69;55.85
64388;BME280;50709;52.648;4.764;2022-10-16T14:28:38;101636.81;;;19.76;58.24
64388;BME280;50709;52.648;4.764;2022-10-16T14:33:48;101634.91;;;19.43;54.73
64388;BME280;50709;52.648;4.764;2022-10-16T14:36:15;101638.56;;;19.38;55.07
64388;BME280;50709;52.648;4.764;2022-10-16T14:38:59;101635.81;;;19.44;54.85
64388;BME280;50709;52.648;4.764;2022-10-16T14:41:25;101633.44;;;19.31;55.34